Time;durP1;ratioP1;P1;durP2;ratioP2;P2;SDS_P1;SDS_P2;PMS_P1;PMS_P2;Temp;Humidity;BMP_temperature;BMP_pressure;BME280_temperature;BME280_humidity;BME280_pressure;Samples;Min_cycle;Max_cycle;Signal;HPM_P1;HPM_P2
2021/11/28 00:01:57;;;;;;;6.70;5.03;;;5.30;99.90;;;;;;5031545;28;20876;-71
2021/11/28 00:04:23;;;;;;;6.90;5.50;;;5.30;99.90;;;;;;5032602;28;20456;-71
2021/11/28 00:07:04;;;;;;;7.60;5.50;;;5.30;99.90;;;;;;5031332;28;20171;-71
2021/11/28 00:15:03;;;;;;;7.63;4.63;;;5.40;99.90;;;;;;5047685;28;20423;-69
2021/11/28 00:17:29;;;;;;;5.30;4.80;;;5.40;99.90;;;;;;5063650;28;20412;-69
2021/11/28 00:19:55;;;;;;;5.80;4.83;;;5.40;99.90;;;;;;5052448;28;20965;-69
2021/11/28 00:22:20;;;;;;;5.20;4.63;;;5.40;99.90;;;;;;5046463;28;20410;-68
2021/11/28 00:24:46;;;;;;;6.10;5.43;;;5.40;99.90;;;;;;5044885;28;20277;-68
2021/11/28 00:27:12;;;;;;;5.80;5.20;;;5.30;99.90;;;;;;5042718;28;20266;-68
2021/11/28 00:29:37;;;;;;;5.23;4.73;;;5.30;99.90;;;;;;5033974;28;20259;-69
2021/11/28 00:32:03;;;;;;;5.80;4.77;;;5.30;99.90;;;;;;5032457;28;20570;-68
2021/11/28 00:34:29;;;;;;;9.20;5.30;;;5.20;99.90;;;;;;5032022;28;20186;-67
2021/11/28 00:36:54;;;;;;;5.90;4.40;;;5.30;99.90;;;;;;5030774;28;20656;-68
2021/11/28 00:39:20;;;;;;;7.43;4.90;;;5.30;99.90;;;;;;5031518;28;20218;-68
2021/11/28 00:41:46;;;;;;;5.70;4.93;;;5.30;99.90;;;;;;5023449;28;20567;-68
2021/11/28 00:44:11;;;;;;;5.83;4.90;;;5.30;99.90;;;;;;5032093;28;20174;-68
2021/11/28 00:46:37;;;;;;;5.93;5.13;;;5.20;99.90;;;;;;5031130;28;20174;-68
2021/11/28 00:49:04;;;;;;;5.70;5.10;;;5.10;99.90;;;;;;5031423;28;20195;-68
2021/11/28 00:51:36;;;;;;;4.87;4.37;;;5.00;99.90;;;;;;5031126;28;20261;-68
2021/11/28 00:54:03;;;;;;;5.90;4.60;;;4.80;99.90;;;;;;5030157;28;20417;-68
2021/11/28 00:56:29;;;;;;;7.40;5.03;;;4.80;99.90;;;;;;5031156;28;20436;-67
2021/11/28 00:58:55;;;;;;;6.40;4.77;;;4.70;99.90;;;;;;5031061;28;20445;-68
2021/11/28 01:01:20;;;;;;;5.53;4.73;;;4.60;99.90;;;;;;5031595;28;20589;-68
2021/11/28 01:03:46;;;;;;;6.47;5.03;;;4.60;99.90;;;;;;5034874;28;20645;-68
2021/11/28 01:06:12;;;;;;;8.40;5.20;;;4.60;99.90;;;;;;5034849;28;20259;-67
2021/11/28 01:08:38;;;;;;;11.80;4.90;;;4.60;99.90;;;;;;5037342;28;20267;-70
2021/11/28 01:11:03;;;;;;;8.47;5.23;;;4.60;99.90;;;;;;5037012;28;20194;-70
2021/11/28 01:13:29;;;;;;;6.57;5.10;;;4.60;99.90;;;;;;5034360;28;20176;-70
2021/11/28 01:15:55;;;;;;;6.33;4.40;;;4.50;99.90;;;;;;5027248;28;20182;-69
2021/11/28 01:18:20;;;;;;;9.00;4.77;;;4.40;99.90;;;;;;5034096;28;20795;-69
2021/11/28 01:20:46;;;;;;;6.20;4.63;;;4.30;99.90;;;;;;5034773;28;20194;-70
2021/11/28 01:23:12;;;;;;;4.90;4.30;;;4.30;99.90;;;;;;5034182;28;20256;-70
2021/11/28 01:25:37;;;;;;;6.97;5.60;;;4.30;99.90;;;;;;5033932;28;20207;-68
2021/11/28 01:28:03;;;;;;;5.00;4.50;;;4.30;99.90;;;;;;5034030;28;20231;-69
2021/11/28 01:30:30;;;;;;;5.37;4.80;;;4.30;99.90;;;;;;5032962;28;20197;-69
2021/11/28 01:32:56;;;;;;;5.87;5.10;;;4.40;99.90;;;;;;5032735;28;20431;-69
2021/11/28 01:35:22;;;;;;;10.43;6.30;;;4.50;99.90;;;;;;5033880;28;20435;-70
2021/11/28 01:37:47;;;;;;;4.67;4.27;;;4.50;99.90;;;;;;5033657;28;20412;-69
2021/11/28 01:40:16;;;;;;;9.40;4.90;;;4.50;99.90;;;;;;5034124;28;20233;-69
2021/11/28 01:42:50;;;;;;;7.27;5.03;;;4.50;99.90;;;;;;5034109;28;20185;-69
2021/11/28 01:45:23;;;;;;;6.10;4.90;;;4.40;99.90;;;;;;5034026;28;20460;-69
2021/11/28 01:47:50;;;;;;;12.20;5.40;;;4.40;99.90;;;;;;5028854;28;20491;-69
2021/11/28 01:50:16;;;;;;;6.00;4.53;;;4.40;99.90;;;;;;5025212;28;20440;-70
2021/11/28 01:52:42;;;;;;;5.60;4.97;;;4.40;99.90;;;;;;5029087;28;20497;-68
2021/11/28 01:55:11;;;;;;;6.70;4.97;;;4.50;99.90;;;;;;5028706;28;20216;-68
2021/11/28 01:57:38;;;;;;;6.20;5.60;;;4.50;99.90;;;;;;5033510;28;20207;-68
2021/11/28 02:00:12;;;;;;;7.50;5.30;;;4.50;99.90;;;;;;5029068;28;20470;-67
2021/11/28 02:02:38;;;;;;;5.93;5.20;;;4.60;99.90;;;;;;5024472;28;20420;-68
2021/11/28 02:05:04;;;;;;;5.50;5.00;;;4.70;99.90;;;;;;5033011;28;20429;-68
2021/11/28 02:07:30;;;;;;;5.77;5.17;;;4.60;99.90;;;;;;5033286;28;20194;-68
2021/11/28 02:09:57;;;;;;;8.60;5.17;;;4.50;99.90;;;;;;5033265;28;20525;-67
2021/11/28 02:12:24;;;;;;;5.73;4.70;;;4.40;99.90;;;;;;5033077;28;20490;-68
2021/11/28 02:14:50;;;;;;;5.90;4.47;;;4.40;99.90;;;;;;5033010;28;20800;-69
2021/11/28 02:17:15;;;;;;;8.33;5.33;;;4.40;99.90;;;;;;5032933;28;20417;-69
2021/11/28 02:19:41;;;;;;;7.13;4.93;;;4.40;99.90;;;;;;5032985;28;20213;-69
2021/11/28 02:22:07;;;;;;;7.40;4.70;;;4.40;99.90;;;;;;5033244;28;20183;-69
2021/11/28 02:24:32;;;;;;;5.43;4.63;;;4.40;99.90;;;;;;5032762;28;20200;-70
2021/11/28 02:26:58;;;;;;;5.97;5.37;;;4.40;99.90;;;;;;5032608;28;20214;-69
2021/11/28 02:29:23;;;;;;;7.57;5.30;;;4.40;99.90;;;;;;5033003;28;20249;-69
2021/11/28 02:31:49;;;;;;;5.10;4.57;;;4.30;99.90;;;;;;5033011;28;20658;-69
2021/11/28 02:34:15;;;;;;;5.93;5.30;;;4.20;99.90;;;;;;5032724;28;20718;-69
2021/11/28 02:36:41;;;;;;;5.30;4.80;;;4.20;99.90;;;;;;5032306;28;20177;-69
2021/11/28 02:39:06;;;;;;;5.80;4.67;;;4.10;99.90;;;;;;5032763;28;20491;-69
2021/11/28 02:41:33;;;;;;;5.10;4.60;;;4.00;99.90;;;;;;5032233;28;20200;-69
2021/11/28 02:43:59;;;;;;;14.67;5.40;;;4.00;99.90;;;;;;5032754;28;20261;-69
2021/11/28 02:46:24;;;;;;;7.30;4.90;;;4.00;99.90;;;;;;5031530;28;20996;-68
2021/11/28 02:48:50;;;;;;;6.50;5.30;;;4.00;99.90;;;;;;5032733;28;20188;-69
2021/11/28 02:51:16;;;;;;;7.03;5.53;;;3.90;99.90;;;;;;5032296;28;20315;-69
2021/11/28 02:53:42;;;;;;;6.73;5.30;;;3.90;99.90;;;;;;5032474;28;20903;-69
2021/11/28 02:56:07;;;;;;;6.97;5.63;;;3.70;99.90;;;;;;5031959;28;20190;-69
2021/11/28 02:58:34;;;;;;;8.30;5.67;;;3.60;99.90;;;;;;5032133;28;20335;-69
2021/11/28 03:01:09;;;;;;;6.30;5.23;;;3.50;99.90;;;;;;5032316;28;20944;-69
2021/11/28 03:03:34;;;;;;;5.93;4.67;;;3.50;99.90;;;;;;5031973;28;20429;-69
2021/11/28 03:06:00;;;;;;;5.73;5.07;;;3.50;99.90;;;;;;5032147;28;20434;-69
2021/11/28 03:08:26;;;;;;;10.20;5.00;;;3.60;99.90;;;;;;5032690;28;20538;-68
2021/11/28 03:10:55;;;;;;;7.77;5.13;;;3.70;99.90;;;;;;5032024;28;20227;-69
2021/11/28 03:13:23;;;;;;;6.93;5.30;;;3.70;99.90;;;;;;5032189;28;20187;-69
2021/11/28 03:15:51;;;;;;;7.70;6.20;;;3.80;99.90;;;;;;5027756;28;20922;-69
2021/11/28 03:18:21;;;;;;;6.27;5.43;;;3.80;99.90;;;;;;5032708;28;20447;-69
2021/11/28 03:20:47;;;;;;;6.50;5.60;;;3.80;99.90;;;;;;5032347;28;20453;-69
2021/11/28 03:23:15;;;;;;;6.13;5.00;;;3.70;99.90;;;;;;5032243;28;20420;-69
2021/11/28 03:25:41;;;;;;;7.07;5.13;;;3.60;99.90;;;;;;5031036;28;20406;-69
2021/11/28 03:28:13;;;;;;;7.20;5.80;;;3.40;99.90;;;;;;5032239;28;20468;-69
2021/11/28 03:30:39;;;;;;;7.63;5.93;;;3.40;99.90;;;;;;5032424;28;20784;-69
2021/11/28 03:33:04;;;;;;;7.37;5.90;;;3.40;99.90;;;;;;5031875;28;20409;-69
2021/11/28 03:35:30;;;;;;;8.73;6.40;;;3.40;99.90;;;;;;5031592;28;20178;-69
2021/11/28 03:37:56;;;;;;;7.50;5.70;;;3.30;99.90;;;;;;5014079;28;20187;-69
2021/11/28 03:40:21;;;;;;;8.50;5.63;;;3.30;99.90;;;;;;5031644;28;20191;-69
2021/11/28 03:42:47;;;;;;;7.53;5.90;;;3.20;99.90;;;;;;5031778;28;20236;-69
2021/11/28 03:45:17;;;;;;;8.93;6.37;;;3.20;99.90;;;;;;5015361;28;20744;-69
2021/11/28 03:47:43;;;;;;;8.93;6.83;;;3.20;99.90;;;;;;5031573;28;20160;-68
2021/11/28 03:50:09;;;;;;;8.83;5.93;;;3.30;99.90;;;;;;5014601;28;20448;-69
2021/11/28 03:52:35;;;;;;;11.63;6.27;;;3.50;99.90;;;;;;5031615;28;20171;-69
2021/11/28 03:55:01;;;;;;;9.17;5.80;;;3.50;99.90;;;;;;5031793;28;20406;-69
2021/11/28 03:57:27;;;;;;;6.90;5.90;;;3.60;99.90;;;;;;5031742;28;20674;-69
2021/11/28 03:59:52;;;;;;;10.13;5.83;;;3.60;99.90;;;;;;5032334;28;20472;-69
2021/11/28 04:02:19;;;;;;;8.30;5.97;;;3.50;99.90;;;;;;5031772;28;20203;-69
2021/11/28 04:04:45;;;;;;;8.83;5.57;;;3.50;99.90;;;;;;5031762;28;20207;-69
2021/11/28 04:07:10;;;;;;;6.87;5.97;;;3.50;99.90;;;;;;5030917;28;20458;-69
2021/11/28 04:09:36;;;;;;;8.30;6.00;;;3.60;99.90;;;;;;5031636;28;20225;-69
2021/11/28 04:12:02;;;;;;;6.20;5.60;;;3.60;99.90;;;;;;5031631;28;20214;-69
2021/11/28 04:14:28;;;;;;;7.97;6.23;;;3.70;99.90;;;;;;5031535;28;20508;-69
2021/11/28 04:16:53;;;;;;;10.83;7.20;;;3.70;99.90;;;;;;5031151;28;20546;-69
2021/11/28 04:19:19;;;;;;;7.80;5.83;;;3.80;99.90;;;;;;5031472;28;20216;-69
2021/11/28 04:21:45;;;;;;;6.40;5.67;;;4.00;99.90;;;;;;5031941;28;20262;-69
2021/11/28 04:24:12;;;;;;;5.53;4.97;;;4.10;99.90;;;;;;5031748;28;20638;-68
2021/11/28 04:26:39;;;;;;;9.70;6.27;;;4.10;99.90;;;;;;5031145;28;20965;-69
2021/11/28 04:29:04;;;;;;;6.53;5.57;;;4.20;99.90;;;;;;5031519;28;20451;-69
2021/11/28 04:31:30;;;;;;;6.63;5.93;;;4.30;99.90;;;;;;5031788;28;20415;-68
2021/11/28 04:33:55;;;;;;;6.33;5.70;;;4.30;99.90;;;;;;5031592;28;20265;-69
2021/11/28 04:36:21;;;;;;;6.10;5.50;;;4.40;99.90;;;;;;5031399;28;20202;-69
2021/11/28 04:38:47;;;;;;;6.63;5.67;;;4.30;99.90;;;;;;5034834;28;20209;-68
2021/11/28 04:41:12;;;;;;;8.67;6.60;;;4.30;99.90;;;;;;5018245;28;20189;-68
2021/11/28 04:43:38;;;;;;;5.33;4.90;;;4.40;99.90;;;;;;5017524;28;20203;-68
2021/11/28 04:46:03;;;;;;;8.50;5.67;;;4.40;99.90;;;;;;5034934;28;20176;-69
2021/11/28 04:48:29;;;;;;;5.90;5.07;;;4.50;99.90;;;;;;5034249;28;20172;-69
2021/11/28 04:50:55;;;;;;;7.50;6.70;;;4.50;99.90;;;;;;5034888;28;20201;-69
2021/11/28 04:53:21;;;;;;;7.83;6.80;;;4.50;99.90;;;;;;5035166;28;20179;-68
2021/11/28 04:55:47;;;;;;;6.93;5.67;;;4.60;99.90;;;;;;5016727;28;20522;-68
2021/11/28 04:58:13;;;;;;;7.20;5.20;;;4.60;99.90;;;;;;5017250;28;22322;-69
2021/11/28 05:00:38;;;;;;;6.87;6.20;;;4.60;99.90;;;;;;5034666;28;20269;-69
2021/11/28 05:03:04;;;;;;;12.10;5.80;;;4.60;99.90;;;;;;5034142;28;20666;-69
2021/11/28 05:05:29;;;;;;;8.37;6.67;;;4.60;99.90;;;;;;5034577;28;20218;-68
2021/11/28 05:07:55;;;;;;;7.33;6.37;;;4.60;99.90;;;;;;5034651;28;20582;-69
2021/11/28 05:10:21;;;;;;;7.00;6.30;;;4.60;99.90;;;;;;5033780;28;20300;-69
2021/11/28 05:12:47;;;;;;;9.67;5.50;;;4.70;99.90;;;;;;5034419;28;20585;-69
2021/11/28 05:15:13;;;;;;;6.90;5.60;;;4.70;99.90;;;;;;5034150;28;20175;-69
2021/11/28 05:17:39;;;;;;;7.73;6.30;;;4.70;99.90;;;;;;5034095;28;20843;-69
2021/11/28 05:20:05;;;;;;;6.10;5.47;;;4.70;99.90;;;;;;5034276;28;20517;-68
2021/11/28 05:22:31;;;;;;;6.30;5.70;;;4.70;99.90;;;;;;5034379;28;20197;-68
2021/11/28 05:24:57;;;;;;;6.37;5.77;;;4.80;99.90;;;;;;5029100;28;20987;-68
2021/11/28 05:27:24;;;;;;;6.50;5.80;;;4.80;99.90;;;;;;5032540;28;20410;-68
2021/11/28 05:29:50;;;;;;;6.67;5.70;;;4.80;99.90;;;;;;5034114;28;20970;-68
2021/11/28 05:32:16;;;;;;;8.43;6.43;;;4.80;99.90;;;;;;5034118;28;20424;-69
2021/11/28 05:34:41;;;;;;;8.03;5.40;;;4.80;99.90;;;;;;5033817;28;20190;-69
2021/11/28 05:37:07;;;;;;;6.67;5.67;;;4.70;99.90;;;;;;5032565;28;20205;-68
2021/11/28 05:39:33;;;;;;;8.40;6.17;;;4.70;99.90;;;;;;5034100;28;20198;-69
2021/11/28 05:41:59;;;;;;;7.70;6.53;;;4.70;99.90;;;;;;5034071;28;20505;-69
2021/11/28 05:44:24;;;;;;;8.27;6.20;;;4.60;99.90;;;;;;5033805;28;20272;-68
2021/11/28 05:46:50;;;;;;;8.73;6.47;;;4.60;99.90;;;;;;5033580;28;20412;-69
2021/11/28 05:49:16;;;;;;;8.13;6.30;;;4.60;99.90;;;;;;5033303;28;20751;-68
2021/11/28 05:51:42;;;;;;;6.57;5.60;;;4.60;99.90;;;;;;5033665;28;20267;-68
2021/11/28 05:54:08;;;;;;;6.17;5.63;;;4.70;99.90;;;;;;5033843;28;20491;-69
2021/11/28 05:56:33;;;;;;;8.07;5.67;;;4.70;99.90;;;;;;5032905;28;20551;-69
2021/11/28 05:58:59;;;;;;;9.63;6.20;;;4.80;99.90;;;;;;5033386;28;20213;-68
2021/11/28 06:01:25;;;;;;;11.57;7.03;;;4.70;99.90;;;;;;5033738;28;20229;-69
2021/11/28 06:03:50;;;;;;;5.87;5.37;;;4.70;99.90;;;;;;5033667;28;20185;-69
2021/11/28 06:06:16;;;;;;;7.93;6.23;;;4.70;99.90;;;;;;5033110;28;20184;-69
2021/11/28 06:08:43;;;;;;;7.10;6.10;;;4.60;99.90;;;;;;5033268;28;20250;-69
2021/11/28 06:11:08;;;;;;;7.60;6.03;;;4.70;99.90;;;;;;5033567;28;20331;-69
2021/11/28 06:13:34;;;;;;;10.33;6.70;;;4.70;99.90;;;;;;5033430;28;20486;-69
2021/11/28 06:16:00;;;;;;;9.37;6.80;;;4.60;99.90;;;;;;5057476;22;20768;-69
2021/11/28 06:18:25;;;;;;;8.73;5.97;;;4.50;99.90;;;;;;5034887;28;20216;-68
2021/11/28 06:20:51;;;;;;;7.27;6.07;;;4.40;99.90;;;;;;5033594;28;20314;-69
2021/11/28 06:23:16;;;;;;;7.83;6.23;;;4.40;99.90;;;;;;5033425;28;20586;-70
2021/11/28 06:25:42;;;;;;;6.27;5.67;;;4.50;99.90;;;;;;5032697;28;20199;-69
2021/11/28 06:28:08;;;;;;;6.80;6.20;;;4.60;99.90;;;;;;5033057;28;20633;-68
2021/11/28 06:30:34;;;;;;;8.23;7.10;;;4.60;99.90;;;;;;5032930;28;20178;-70
2021/11/28 06:33:00;;;;;;;7.40;6.60;;;4.60;99.90;;;;;;5033138;28;20972;-69
2021/11/28 06:35:26;;;;;;;10.00;7.20;;;4.60;99.90;;;;;;5032537;28;20439;-69
2021/11/28 06:37:52;;;;;;;8.27;7.10;;;4.40;99.90;;;;;;5033032;28;20179;-70
2021/11/28 06:40:18;;;;;;;8.57;7.30;;;4.50;99.90;;;;;;5032655;28;20459;-71
2021/11/28 06:42:43;;;;;;;8.77;6.63;;;4.60;99.90;;;;;;5032865;28;20427;-70
2021/11/28 06:45:10;;;;;;;9.60;6.80;;;4.60;99.90;;;;;;5032873;28;20200;-69
2021/11/28 06:47:36;;;;;;;9.53;7.00;;;4.70;99.90;;;;;;5014821;28;20178;-69
2021/11/28 06:50:01;;;;;;;7.43;6.50;;;4.70;99.90;;;;;;5032857;28;20413;-70
2021/11/28 06:52:27;;;;;;;8.00;7.20;;;4.80;99.90;;;;;;5032569;28;20186;-69
2021/11/28 06:54:52;;;;;;;8.53;6.90;;;4.80;99.90;;;;;;5032394;28;20420;-69
2021/11/28 06:57:18;;;;;;;9.23;6.10;;;4.80;99.90;;;;;;5032048;28;20678;-69
2021/11/28 06:59:44;;;;;;;6.70;5.70;;;4.80;99.90;;;;;;5031755;28;20209;-69
2021/11/28 07:02:09;;;;;;;9.37;7.03;;;4.70;99.90;;;;;;5032209;28;20178;-69
2021/11/28 07:04:35;;;;;;;11.20;6.73;;;4.70;99.90;;;;;;5032680;28;20224;-69
2021/11/28 07:07:00;;;;;;;7.90;6.50;;;4.60;99.90;;;;;;5032288;28;20194;-70
2021/11/28 07:09:27;;;;;;;8.00;6.93;;;4.50;99.90;;;;;;5035754;28;20182;-70
2021/11/28 07:11:53;;;;;;;9.83;6.30;;;4.50;99.90;;;;;;5048464;28;20528;-70
2021/11/28 07:14:18;;;;;;;7.13;6.50;;;4.60;99.90;;;;;;5042585;28;20510;-70
2021/11/28 07:16:44;;;;;;;7.10;6.40;;;4.50;99.90;;;;;;5051773;28;20307;-68
2021/11/28 07:19:10;;;;;;;7.60;6.90;;;4.50;99.90;;;;;;5052193;28;20208;-69
2021/11/28 07:21:36;;;;;;;10.10;7.30;;;4.50;99.90;;;;;;5051868;28;20178;-69
2021/11/28 07:24:01;;;;;;;6.70;6.10;;;4.50;99.90;;;;;;5039524;28;20180;-69
2021/11/28 07:26:27;;;;;;;8.60;7.40;;;4.50;99.90;;;;;;5032071;28;20437;-69
2021/11/28 07:28:52;;;;;;;6.60;5.97;;;4.60;99.90;;;;;;5032308;28;20205;-70
2021/11/28 07:31:18;;;;;;;9.23;6.47;;;4.60;99.90;;;;;;5032323;28;20193;-70
2021/11/28 07:33:44;;;;;;;6.83;6.03;;;4.60;99.90;;;;;;5014838;28;20182;-70
2021/11/28 07:36:10;;;;;;;11.00;6.07;;;4.60;99.90;;;;;;5031839;28;20432;-69
2021/11/28 07:38:36;;;;;;;7.20;6.30;;;4.50;99.90;;;;;;5031807;28;20207;-70
2021/11/28 07:41:02;;;;;;;7.50;6.80;;;4.60;99.90;;;;;;5032329;28;20548;-69
2021/11/28 07:43:28;;;;;;;7.43;6.57;;;4.60;99.90;;;;;;5031962;28;20417;-69
2021/11/28 07:45:54;;;;;;;9.13;6.90;;;4.70;99.90;;;;;;5031054;28;20456;-70
2021/11/28 07:48:21;;;;;;;6.50;5.87;;;4.80;99.90;;;;;;5032324;28;20260;-70
2021/11/28 07:50:47;;;;;;;8.73;6.63;;;4.80;99.90;;;;;;5031961;28;20412;-70
2021/11/28 07:53:14;;;;;;;8.60;6.17;;;4.90;99.90;;;;;;5031627;28;20413;-70
2021/11/28 07:55:40;;;;;;;7.60;6.53;;;4.90;99.90;;;;;;5031275;28;20544;-70
2021/11/28 07:58:05;;;;;;;8.37;6.60;;;5.00;99.90;;;;;;5031755;28;20508;-70
2021/11/28 08:00:31;;;;;;;8.07;6.37;;;5.00;99.90;;;;;;5032687;28;20603;-70
2021/11/28 08:02:57;;;;;;;8.53;7.13;;;5.10;99.90;;;;;;5047026;28;20182;-71
2021/11/28 08:05:22;;;;;;;7.73;6.93;;;5.10;99.90;;;;;;5047728;28;20201;-70
2021/11/28 08:07:48;;;;;;;7.43;6.50;;;5.10;99.90;;;;;;5045708;28;20233;-70
2021/11/28 08:10:14;;;;;;;9.20;5.77;;;5.10;99.90;;;;;;5051311;28;20269;-70
2021/11/28 08:12:40;;;;;;;8.43;7.50;;;5.20;99.90;;;;;;5051677;28;20502;-70
2021/11/28 08:15:08;;;;;;;7.83;6.30;;;5.10;99.90;;;;;;5050234;28;20439;-70
2021/11/28 08:17:38;;;;;;;6.73;6.03;;;5.10;99.90;;;;;;5048983;28;20185;-70
2021/11/28 08:20:05;;;;;;;7.37;6.30;;;5.20;99.90;;;;;;5036662;28;20453;-69
2021/11/28 08:22:31;;;;;;;8.53;6.27;;;5.20;99.90;;;;;;5022720;28;20470;-70
2021/11/28 08:24:56;;;;;;;12.13;6.90;;;5.20;99.90;;;;;;5030669;28;20441;-74
2021/11/28 08:27:22;;;;;;;7.90;6.60;;;5.30;99.90;;;;;;5034875;28;20214;-70
2021/11/28 08:29:48;;;;;;;8.47;6.00;;;5.30;99.90;;;;;;5035275;28;20672;-73
2021/11/28 08:32:13;;;;;;;8.63;6.10;;;5.30;99.90;;;;;;5017269;28;20694;-72
2021/11/28 08:34:39;;;;;;;7.53;6.87;;;5.40;99.90;;;;;;5035940;28;20294;-69
2021/11/28 08:37:05;;;;;;;8.47;6.40;;;5.40;99.90;;;;;;5034042;28;20619;-68
2021/11/28 08:39:31;;;;;;;8.30;6.73;;;5.40;99.90;;;;;;5036605;28;20214;-69
2021/11/28 08:41:57;;;;;;;9.33;7.10;;;5.40;99.90;;;;;;5035536;28;20198;-70
2021/11/28 08:44:22;;;;;;;7.73;6.90;;;5.40;99.90;;;;;;5036748;28;20730;-70
2021/11/28 08:46:49;;;;;;;8.10;6.73;;;5.40;99.90;;;;;;5035182;28;20194;-70
2021/11/28 08:49:15;;;;;;;8.47;7.20;;;5.40;99.90;;;;;;5035835;28;20217;-70
2021/11/28 08:51:40;;;;;;;8.40;6.70;;;5.50;99.90;;;;;;5034022;28;20826;-69
2021/11/28 08:54:06;;;;;;;11.93;7.80;;;5.40;99.90;;;;;;5034875;28;20453;-70
2021/11/28 08:56:32;;;;;;;8.00;6.30;;;5.50;99.90;;;;;;5035305;28;20202;-70
2021/11/28 08:58:57;;;;;;;8.67;6.80;;;5.50;99.90;;;;;;5035511;28;20927;-70
2021/11/28 09:01:23;;;;;;;8.27;7.40;;;5.50;99.90;;;;;;5035183;28;20702;-69
2021/11/28 09:03:49;;;;;;;8.03;6.90;;;5.50;99.90;;;;;;5033741;28;20215;-70
2021/11/28 09:06:15;;;;;;;9.20;7.43;;;5.60;99.90;;;;;;5034932;28;20684;-70
2021/11/28 09:08:40;;;;;;;10.87;7.27;;;5.70;99.90;;;;;;5035048;28;20499;-70
2021/11/28 09:11:07;;;;;;;7.20;6.50;;;5.60;99.90;;;;;;5046233;28;20524;-70
2021/11/28 09:13:33;;;;;;;8.97;7.53;;;5.60;99.90;;;;;;5047501;28;20221;-70
2021/11/28 09:15:59;;;;;;;10.00;8.57;;;5.60;99.90;;;;;;5049804;28;20455;-70
2021/11/28 09:18:32;;;;;;;7.80;7.00;;;5.70;99.90;;;;;;5046657;28;20460;-70
2021/11/28 09:21:00;;;;;;;11.03;7.83;;;5.70;99.90;;;;;;5055402;28;20192;-69
2021/11/28 09:26:10;;;;;;;9.97;7.70;;;5.80;99.90;;;;;;5053412;28;20435;-69
2021/11/28 09:28:39;;;;;;;11.10;7.70;;;5.80;99.90;;;;;;5051926;28;20964;-69
2021/11/28 09:31:09;;;;;;;8.40;7.60;;;5.80;99.90;;;;;;5046710;28;20222;-69
2021/11/28 09:33:35;;;;;;;8.37;7.50;;;5.60;99.90;;;;;;5053108;28;20814;-69
2021/11/28 09:36:01;;;;;;;10.30;8.40;;;5.40;99.90;;;;;;5040266;28;20430;-70
2021/11/28 09:38:26;;;;;;;8.50;7.13;;;5.30;99.90;;;;;;5028678;28;20523;-68
2021/11/28 09:40:53;;;;;;;11.03;8.57;;;5.40;99.90;;;;;;5033916;28;20199;-68
2021/11/28 09:43:23;;;;;;;9.43;7.83;;;5.40;99.90;;;;;;5038648;28;20194;-69
2021/11/28 09:45:49;;;;;;;12.10;7.70;;;5.20;99.90;;;;;;5025159;28;20448;-68
2021/11/28 09:48:15;;;;;;;9.83;8.37;;;5.10;99.90;;;;;;5030091;28;20944;-68
2021/11/28 09:50:41;;;;;;;10.80;8.97;;;5.10;99.90;;;;;;5030673;28;20432;-68
2021/11/28 09:53:07;;;;;;;10.50;8.60;;;5.10;99.90;;;;;;5029947;28;20448;-72
2021/11/28 09:55:33;;;;;;;9.53;7.77;;;5.00;99.90;;;;;;5028454;28;20630;-68
2021/11/28 09:58:00;;;;;;;12.73;8.07;;;4.90;99.90;;;;;;5030242;28;20421;-69
2021/11/28 10:00:26;;;;;;;10.20;8.30;;;4.90;99.90;;;;;;5029406;28;20467;-69
2021/11/28 10:02:51;;;;;;;10.77;8.30;;;4.70;99.90;;;;;;5031389;28;20424;-69
2021/11/28 10:05:17;;;;;;;9.70;8.60;;;4.70;99.90;;;;;;5031584;28;20260;-69
2021/11/28 10:07:44;;;;;;;13.80;9.30;;;4.60;99.90;;;;;;5030872;28;20197;-68
2021/11/28 10:10:12;;;;;;;13.73;10.00;;;4.60;99.90;;;;;;5031660;28;20213;-68
2021/11/28 10:12:44;;;;;;;11.87;9.20;;;4.70;99.90;;;;;;5044241;28;20848;-71
2021/11/28 10:15:13;;;;;;;12.97;10.50;;;4.80;99.90;;;;;;5042161;28;20838;-70
2021/11/28 10:17:39;;;;;;;14.30;10.40;;;5.00;99.90;;;;;;5051431;28;20812;-70
2021/11/28 10:20:12;;;;;;;14.10;10.50;;;5.00;99.90;;;;;;5045707;28;20498;-70
2021/11/28 10:22:38;;;;;;;12.03;9.60;;;5.20;99.90;;;;;;5042519;28;20408;-69
2021/11/28 10:25:15;;;;;;;14.93;9.50;;;5.30;99.90;;;;;;5051426;28;20436;-68
2021/11/28 10:27:45;;;;;;;12.57;10.43;;;5.50;99.90;;;;;;5032120;28;20439;-70
2021/11/28 10:30:35;;;;;;;14.63;10.37;;;5.50;99.90;;;;;;5033235;28;20453;-70
2021/11/28 10:33:05;;;;;;;15.10;10.70;;;5.60;99.90;;;;;;5024667;28;20454;-70
2021/11/28 10:35:31;;;;;;;13.77;10.87;;;5.60;99.90;;;;;;5032695;28;20437;-69
2021/11/28 10:37:56;;;;;;;14.00;11.80;;;5.60;99.90;;;;;;5032385;28;20425;-69
2021/11/28 10:40:27;;;;;;;14.40;11.17;;;5.50;99.90;;;;;;5032681;28;20200;-69
2021/11/28 10:43:08;;;;;;;15.93;12.67;;;5.40;99.90;;;;;;5033398;28;20217;-70
2021/11/28 10:45:38;;;;;;;16.33;11.77;;;5.40;99.90;;;;;;5032158;28;20430;-70
2021/11/28 10:48:06;;;;;;;15.97;12.03;;;5.40;99.90;;;;;;5032237;28;20556;-71
2021/11/28 10:50:34;;;;;;;15.37;12.23;;;5.30;99.90;;;;;;5032885;28;20437;-69
2021/11/28 10:53:07;;;;;;;22.93;12.20;;;5.20;99.90;;;;;;5032382;28;20429;-70
2021/11/28 10:55:42;;;;;;;19.73;13.50;;;5.10;99.90;;;;;;5031652;28;20437;-70
2021/11/28 10:58:09;;;;;;;18.73;13.37;;;5.00;99.90;;;;;;5032340;28;20412;-70
2021/11/28 11:00:37;;;;;;;19.40;13.23;;;4.90;99.90;;;;;;5032499;28;20511;-69
2021/11/28 11:03:50;;;;;;;19.53;14.07;;;4.90;99.90;;;;;;5029690;28;20463;-70
2021/11/28 11:06:20;;;;;;;21.57;16.03;;;4.80;99.90;;;;;;4951351;28;20444;-68
2021/11/28 11:08:48;;;;;;;18.67;14.53;;;4.90;99.90;;;;;;4951759;28;20425;-69
2021/11/28 11:11:16;;;;;;;20.53;14.33;;;5.00;99.90;;;;;;4951646;29;20933;-70
2021/11/28 11:13:57;;;;;;;20.97;13.70;;;5.10;99.90;;;;;;4967307;28;20987;-71
2021/11/28 11:16:44;;;;;;;22.67;14.93;;;5.10;99.90;;;;;;4970683;28;20487;-70
2021/11/28 11:19:31;;;;;;;22.90;13.70;;;5.20;99.90;;;;;;4956346;28;20455;-69
2021/11/28 11:22:24;;;;;;;17.40;12.57;;;5.30;99.90;;;;;;4972138;28;20843;-69
2021/11/28 11:24:52;;;;;;;20.60;13.30;;;5.40;99.90;;;;;;4972834;28;20793;-70
2021/11/28 11:27:22;;;;;;;16.33;13.90;;;5.40;99.90;;;;;;4971357;28;20511;-71
2021/11/28 11:29:51;;;;;;;20.37;14.40;;;5.60;99.90;;;;;;4972100;28;21154;-70
2021/11/28 11:32:38;;;;;;;16.80;13.60;;;5.80;99.90;;;;;;4971687;28;20913;-70
2021/11/28 11:35:08;;;;;;;17.93;14.30;;;6.10;99.90;;;;;;4972844;28;20435;-70
2021/11/28 11:37:34;;;;;;;18.23;12.33;;;6.50;99.90;;;;;;4971213;28;20424;-70
2021/11/28 11:40:03;;;;;;;17.93;13.80;;;6.80;99.90;;;;;;4972310;28;20966;-69
2021/11/28 11:42:29;;;;;;;17.93;13.20;;;7.00;99.90;;;;;;5011603;28;20204;-69
2021/11/28 11:44:56;;;;;;;18.23;13.33;;;7.20;99.90;;;;;;5030593;28;20453;-69
2021/11/28 11:47:22;;;;;;;17.07;11.77;;;7.40;99.90;;;;;;5029431;28;20197;-69
2021/11/28 11:49:49;;;;;;;17.93;12.73;;;7.60;99.90;;;;;;5030954;28;20486;-69
2021/11/28 11:52:16;;;;;;;19.83;15.00;;;7.40;99.90;;;;;;5030725;28;20414;-69
2021/11/28 11:55:07;;;;;;;23.47;13.53;;;7.40;99.90;;;;;;5030662;28;20410;-71
2021/11/28 11:57:32;;;;;;;16.53;11.10;;;7.50;99.90;;;;;;5012973;28;20431;-70
2021/11/28 12:00:26;;;;;;;16.50;11.17;;;7.20;99.90;;;;;;5031394;28;20460;-70
2021/11/28 12:02:53;;;;;;;18.30;11.27;;;7.00;99.90;;;;;;5031594;28;20250;-70
2021/11/28 12:05:25;;;;;;;16.77;11.60;;;6.80;99.90;;;;;;5031285;28;20420;-70
2021/11/28 12:08:08;;;;;;;19.00;12.57;;;6.50;99.90;;;;;;5031408;28;20508;-70
2021/11/28 12:10:40;;;;;;;20.80;13.60;;;6.40;99.90;;;;;;5031315;28;20410;-70
2021/11/28 12:13:08;;;;;;;19.40;12.97;;;6.40;99.90;;;;;;5031287;28;20953;-70
2021/11/28 12:15:52;;;;;;;18.73;13.00;;;6.10;99.90;;;;;;5029995;28;20523;-70
2021/11/28 12:18:37;;;;;;;16.83;12.00;;;6.10;99.90;;;;;;5031457;28;20420;-70
2021/11/28 12:21:08;;;;;;;14.80;11.40;;;6.10;99.90;;;;;;5031074;28;20926;-70
2021/11/28 12:23:42;;;;;;;21.93;13.40;;;6.10;99.90;;;;;;5059182;22;20516;-68
2021/11/28 12:26:26;;;;;;;17.37;11.37;;;6.10;99.90;;;;;;5038882;28;20419;-68
2021/11/28 12:28:54;;;;;;;19.30;10.60;;;6.10;99.90;;;;;;5030582;28;20471;-69
2021/11/28 12:31:28;;;;;;;17.83;11.70;;;6.00;99.90;;;;;;5040214;28;20413;-68
2021/11/28 12:33:57;;;;;;;25.80;15.10;;;6.00;99.90;;;;;;5051803;28;20428;-68
2021/11/28 12:36:32;;;;;;;26.67;15.87;;;5.90;99.90;;;;;;5051690;28;20386;-68
2021/11/28 12:39:06;;;;;;;23.17;15.03;;;5.70;99.90;;;;;;5051603;28;20443;-68
2021/11/28 12:41:52;;;;;;;24.07;15.93;;;5.60;99.90;;;;;;5049709;28;20504;-68
2021/11/28 12:44:19;;;;;;;30.30;15.43;;;5.50;99.90;;;;;;5047491;28;21000;-68
2021/11/28 12:46:56;;;;;;;29.23;16.40;;;5.70;99.90;;;;;;5045281;28;20494;-70
2021/11/28 12:49:28;;;;;;;24.33;15.90;;;5.80;99.90;;;;;;5032619;28;20416;-70
2021/11/28 12:51:56;;;;;;;25.20;16.60;;;5.80;99.90;;;;;;5033857;28;20416;-69
2021/11/28 12:54:29;;;;;;;31.93;18.40;;;5.80;99.90;;;;;;5050898;28;20424;-68
2021/11/28 12:57:19;;;;;;;26.57;18.03;;;5.80;99.90;;;;;;5031437;28;20895;-69
2021/11/28 13:00:15;;;;;;;32.17;18.80;;;5.80;99.90;;;;;;5040322;28;20500;-68
2021/11/28 13:02:43;;;;;;;26.67;17.63;;;5.70;99.90;;;;;;5040411;28;20455;-70
2021/11/28 13:05:27;;;;;;;23.07;16.70;;;5.50;99.90;;;;;;5053424;28;20829;-69